createdAt,value
2023-03-12T00:00:25.411Z,9.45
2023-03-12T00:01:30.675Z,9.53
2023-03-12T00:02:33.170Z,9.00
2023-03-12T00:03:35.580Z,9.50
2023-03-12T00:04:38.016Z,9.62
2023-03-12T00:05:41.951Z,8.98
2023-03-12T00:06:44.287Z,9.37
2023-03-12T00:07:46.608Z,8.98
2023-03-12T00:08:49.428Z,9.48
2023-03-12T00:09:51.769Z,9.37
2023-03-12T00:10:54.150Z,9.08
2023-03-12T00:11:56.587Z,9.72
2023-03-12T00:12:59.034Z,9.37
2023-03-12T00:14:01.525Z,9.32
2023-03-12T00:15:04.421Z,9.88
2023-03-12T00:16:15.365Z,9.63
2023-03-12T00:17:17.743Z,10.15
2023-03-12T00:18:20.110Z,10.10
2023-03-12T00:19:22.698Z,9.75
2023-03-12T00:20:26.376Z,10.05
2023-03-12T00:21:28.767Z,10.27
2023-03-12T00:22:31.091Z,9.77
2023-03-12T00:23:33.930Z,10.23
2023-03-12T00:24:36.321Z,9.95
2023-03-12T00:25:38.662Z,9.30
2023-03-12T00:26:41.053Z,9.57
2023-03-12T00:27:43.423Z,8.90
2023-03-12T00:28:47.852Z,9.42
2023-03-12T00:29:50.385Z,9.45
2023-03-12T00:30:55.384Z,9.18
2023-03-12T00:31:59.401Z,8.18
2023-03-12T00:33:01.745Z,8.15
2023-03-12T00:34:04.337Z,8.23
2023-03-12T00:35:07.748Z,8.42
2023-03-12T00:36:10.224Z,8.02
2023-03-12T00:37:12.672Z,7.67
2023-03-12T00:38:15.087Z,8.05
2023-03-12T00:39:17.477Z,7.77
2023-03-12T00:40:19.892Z,8.37
2023-03-12T00:41:22.689Z,8.37
2023-03-12T00:42:25.101Z,7.90
2023-03-12T00:43:27.450Z,8.12
2023-03-12T00:44:29.797Z,8.45
2023-03-12T00:45:32.122Z,8.43
2023-03-12T00:46:34.520Z,8.28
2023-03-12T00:47:36.921Z,8.12
2023-03-12T00:48:39.701Z,7.88
2023-03-12T00:49:42.077Z,8.28
2023-03-12T00:50:44.471Z,8.58
2023-03-12T00:51:46.885Z,8.43
2023-03-12T00:52:49.223Z,8.38
2023-03-12T00:53:51.615Z,8.48
2023-03-12T00:54:58.215Z,8.73
2023-03-12T00:56:00.621Z,8.53
2023-03-12T00:57:02.987Z,8.38
2023-03-12T00:58:05.413Z,7.82
2023-03-12T00:59:07.779Z,7.50
2023-03-12T01:00:11.501Z,7.70
2023-03-12T01:01:14.215Z,7.80
2023-03-12T01:02:16.786Z,7.68
2023-03-12T01:03:19.226Z,7.97
2023-03-12T01:04:21.737Z,7.93
2023-03-12T01:05:24.280Z,8.15
2023-03-12T01:06:26.722Z,8.05
2023-03-12T01:07:29.043Z,8.18
2023-03-12T01:08:31.424Z,7.80
2023-03-12T01:09:33.942Z,8.20
2023-03-12T01:10:37.125Z,7.73
2023-03-12T01:11:39.699Z,7.58
2023-03-12T01:12:42.331Z,7.68
2023-03-12T01:13:44.838Z,7.88
2023-03-12T01:14:47.205Z,7.67
2023-03-12T01:15:49.541Z,7.58
2023-03-12T01:16:52.608Z,7.63
2023-03-12T01:17:55.324Z,7.63
2023-03-12T01:18:58.760Z,8.08
2023-03-12T01:20:01.062Z,7.37
2023-03-12T01:21:03.792Z,7.78
2023-03-12T01:22:06.254Z,7.53
2023-03-12T01:23:08.840Z,8.08
2023-03-12T01:24:11.228Z,7.25
2023-03-12T01:25:13.574Z,7.23
2023-03-12T01:26:15.965Z,7.40
2023-03-12T01:27:18.410Z,7.95
2023-03-12T01:28:21.700Z,8.28
2023-03-12T01:29:24.379Z,7.90
2023-03-12T01:30:26.872Z,8.07
2023-03-12T01:31:29.328Z,7.98
2023-03-12T01:32:31.771Z,7.55
2023-03-12T01:33:34.097Z,7.55
2023-03-12T01:34:36.490Z,7.50
2023-03-12T01:35:40.426Z,7.38
2023-03-12T01:36:42.909Z,8.15
2023-03-12T01:37:45.742Z,7.68
2023-03-12T01:38:48.173Z,7.18
2023-03-12T01:39:50.529Z,7.22
2023-03-12T01:40:52.976Z,7.25
2023-03-12T01:41:55.588Z,7.20
2023-03-12T01:42:58.518Z,7.70
2023-03-12T01:44:03.787Z,7.35
2023-03-12T01:45:06.897Z,7.45
2023-03-12T01:46:24.270Z,7.15
2023-03-12T01:47:27.795Z,7.03
2023-03-12T01:48:34.783Z,7.05
2023-03-12T01:49:37.216Z,7.35
2023-03-12T01:50:39.656Z,6.97
2023-03-12T01:51:46.868Z,6.87
2023-03-12T01:52:49.224Z,6.78
2023-03-12T01:53:54.470Z,6.53
2023-03-12T01:55:09.607Z,7.22
2023-03-12T01:56:13.349Z,7.10
2023-03-12T01:57:19.364Z,7.13
2023-03-12T01:58:22.342Z,7.32
2023-03-12T01:59:30.499Z,7.27
2023-03-12T02:00:34.005Z,6.88
2023-03-12T02:01:37.734Z,6.80
2023-03-12T02:02:42.263Z,6.78
2023-03-12T02:03:47.088Z,6.83
2023-03-12T02:04:59.313Z,7.27
2023-03-12T02:06:12.210Z,6.70
2023-03-12T02:07:16.743Z,6.80
2023-03-12T02:08:19.554Z,7.10
2023-03-12T02:09:22.167Z,7.03
2023-03-12T02:10:25.467Z,6.65
2023-03-12T02:11:27.906Z,7.15
2023-03-12T02:12:30.351Z,6.62
2023-03-12T02:13:32.876Z,6.48
2023-03-12T02:14:35.268Z,6.62
2023-03-12T02:15:38.413Z,6.72
2023-03-12T02:16:41.111Z,6.68
2023-03-12T02:17:43.651Z,6.52
2023-03-12T02:18:47.366Z,6.65
2023-03-12T02:20:26.862Z,6.72
2023-03-12T02:21:33.823Z,7.05
2023-03-12T02:22:36.989Z,6.78
2023-03-12T02:23:42.858Z,6.18
2023-03-12T02:25:14.548Z,6.53
2023-03-12T02:26:18.216Z,6.42
2023-03-12T02:27:22.479Z,6.62
2023-03-12T02:28:28.643Z,6.38
2023-03-12T02:29:33.484Z,6.32
2023-03-12T02:30:37.218Z,6.42
2023-03-12T02:31:44.922Z,6.32
2023-03-12T02:32:48.865Z,6.52
2023-03-12T02:33:53.155Z,6.52
2023-03-12T02:34:57.198Z,6.50
2023-03-12T02:35:59.632Z,6.65
2023-03-12T02:37:02.203Z,6.80
2023-03-12T02:38:23.929Z,6.78
2023-03-12T02:39:26.412Z,7.35
2023-03-12T02:40:39.720Z,7.13
2023-03-12T02:41:45.789Z,7.07
2023-03-12T02:42:48.379Z,7.70
2023-03-12T02:44:24.886Z,7.30
2023-03-12T02:45:29.879Z,7.60
2023-03-12T02:46:40.506Z,7.77
2023-03-12T02:47:42.845Z,7.73
2023-03-12T02:48:45.177Z,7.65
2023-03-12T02:49:47.563Z,7.75
2023-03-12T02:50:49.940Z,7.17
2023-03-12T02:51:54.022Z,7.37
2023-03-12T02:52:56.375Z,7.33
2023-03-12T02:53:58.754Z,7.75
2023-03-12T02:55:01.409Z,7.75
2023-03-12T02:56:04.060Z,7.93
2023-03-12T02:57:06.434Z,7.73
2023-03-12T02:58:08.770Z,8.13
2023-03-12T02:59:13.348Z,8.08
2023-03-12T03:00:16.733Z,7.77
2023-03-12T03:01:19.256Z,7.78
2023-03-12T03:02:21.607Z,8.77
2023-03-12T03:03:23.932Z,9.40
2023-03-12T03:04:28.097Z,10.57
2023-03-12T03:05:30.540Z,17.35
2023-03-12T03:06:34.803Z,16.12
2023-03-12T03:07:37.655Z,11.00
2023-03-12T03:08:40.416Z,9.32
2023-03-12T03:09:42.849Z,9.02
2023-03-12T03:10:45.195Z,9.20
2023-03-12T03:11:47.620Z,9.88
2023-03-12T03:12:51.596Z,9.45
2023-03-12T03:13:54.814Z,9.25
2023-03-12T03:14:57.261Z,9.47
2023-03-12T03:16:02.098Z,9.05
2023-03-12T03:17:04.851Z,10.03
2023-03-12T03:18:07.236Z,9.48
2023-03-12T03:19:10.449Z,9.67
2023-03-12T03:20:13.000Z,9.48
2023-03-12T03:21:18.637Z,9.90
2023-03-12T03:22:22.413Z,9.75
2023-03-12T03:23:24.908Z,9.95
2023-03-12T03:24:27.325Z,9.97
2023-03-12T03:25:29.706Z,9.72
2023-03-12T03:26:32.167Z,9.72
2023-03-12T03:27:34.571Z,10.17
2023-03-12T03:28:37.032Z,10.38
2023-03-12T03:29:43.064Z,10.53
2023-03-12T03:30:45.675Z,10.78
2023-03-12T03:31:48.090Z,10.67
2023-03-12T03:32:50.572Z,10.65
2023-03-12T03:33:53.137Z,10.18
2023-03-12T03:34:55.575Z,10.32
2023-03-12T03:35:59.661Z,10.12
2023-03-12T03:37:02.038Z,10.58
2023-03-12T03:38:04.446Z,10.63
2023-03-12T03:39:06.862Z,10.75
2023-03-12T03:40:12.383Z,10.48
2023-03-12T03:41:16.612Z,10.37
2023-03-12T03:42:19.072Z,9.68
2023-03-12T03:43:22.401Z,9.72
2023-03-12T03:44:24.828Z,9.22
2023-03-12T03:45:27.178Z,9.88
2023-03-12T03:46:29.575Z,9.75
2023-03-12T03:47:32.073Z,9.38
2023-03-12T03:48:34.490Z,9.35
2023-03-12T03:49:36.810Z,9.70
2023-03-12T03:50:39.597Z,9.55
2023-03-12T03:51:42.771Z,9.32
2023-03-12T03:52:45.195Z,9.20
2023-03-12T03:53:47.551Z,9.43
2023-03-12T03:54:49.965Z,9.78
2023-03-12T03:55:52.374Z,9.45
2023-03-12T03:56:54.777Z,9.55
2023-03-12T03:57:57.177Z,9.98
2023-03-12T03:58:59.625Z,10.35
2023-03-12T04:00:03.757Z,9.92
2023-03-12T04:01:07.223Z,10.75
2023-03-12T04:02:09.601Z,10.37
2023-03-12T04:03:12.079Z,10.82
2023-03-12T04:04:14.443Z,10.72
2023-03-12T04:05:19.657Z,11.05
2023-03-12T04:06:22.093Z,10.85
2023-03-12T04:07:24.786Z,11.48
2023-03-12T04:08:27.419Z,11.92
2023-03-12T04:09:30.708Z,11.62
2023-03-12T04:10:33.056Z,11.32
2023-03-12T04:11:35.509Z,11.32
2023-03-12T04:12:37.902Z,11.62
2023-03-12T04:13:40.686Z,11.68
2023-03-12T04:14:43.331Z,12.17
2023-03-12T04:15:50.801Z,12.47
2023-03-12T04:16:53.152Z,12.55
2023-03-12T04:17:55.683Z,12.23
2023-03-12T04:18:58.323Z,12.43
2023-03-12T04:20:00.700Z,13.03
2023-03-12T04:21:05.124Z,12.70
2023-03-12T04:22:07.537Z,12.80
2023-03-12T04:23:10.226Z,13.28
2023-03-12T04:24:17.009Z,12.93
2023-03-12T04:25:19.371Z,12.68
2023-03-12T04:26:27.151Z,13.07
2023-03-12T04:27:29.516Z,13.43
2023-03-12T04:28:32.138Z,14.33
2023-03-12T04:29:34.599Z,13.85
2023-03-12T04:30:38.370Z,13.68
2023-03-12T04:31:40.832Z,14.05
2023-03-12T04:32:43.280Z,14.25
2023-03-12T04:33:45.732Z,14.82
2023-03-12T04:34:48.152Z,14.70
2023-03-12T04:35:54.867Z,14.23
2023-03-12T04:36:57.313Z,14.55
2023-03-12T04:38:01.697Z,14.53
2023-03-12T04:39:07.262Z,13.77
2023-03-12T04:40:10.904Z,14.60
2023-03-12T04:41:14.948Z,14.75
2023-03-12T04:42:17.357Z,14.90
2023-03-12T04:43:21.088Z,14.73
2023-03-12T04:44:23.468Z,15.55
2023-03-12T04:45:25.959Z,15.73
2023-03-12T04:46:28.488Z,15.62
2023-03-12T04:47:34.157Z,15.47
2023-03-12T04:48:36.842Z,15.70
2023-03-12T04:49:40.014Z,15.10
2023-03-12T04:50:42.681Z,15.57
2023-03-12T04:51:45.086Z,15.52
2023-03-12T04:52:47.567Z,14.95
2023-03-12T04:53:49.991Z,15.28
2023-03-12T04:54:53.257Z,15.37
2023-03-12T04:56:01.578Z,15.88
2023-03-12T04:57:03.958Z,15.35
2023-03-12T04:58:43.567Z,15.03
2023-03-12T04:59:47.257Z,15.40
2023-03-12T05:00:50.790Z,15.32
2023-03-12T05:02:49.264Z,15.73
2023-03-12T05:03:53.679Z,15.20
2023-03-12T05:04:57.432Z,15.67
2023-03-12T05:06:00.884Z,16.13
2023-03-12T05:07:03.711Z,15.95
2023-03-12T05:08:06.277Z,15.92
2023-03-12T05:09:08.698Z,16.47
2023-03-12T05:10:16.526Z,16.00
2023-03-12T05:11:19.546Z,16.12
2023-03-12T05:12:21.945Z,16.10
2023-03-12T05:13:24.419Z,15.93
2023-03-12T05:14:28.818Z,16.25
2023-03-12T05:15:31.272Z,16.67
2023-03-12T05:16:33.877Z,16.73
2023-03-12T05:17:45.471Z,16.27
2023-03-12T05:18:51.513Z,16.23
2023-03-12T05:19:53.953Z,16.32
2023-03-12T05:21:08.355Z,16.07
2023-03-12T05:22:12.717Z,16.33
2023-03-12T05:23:15.176Z,16.15
2023-03-12T05:24:19.385Z,15.80
2023-03-12T05:25:22.905Z,16.48
2023-03-12T05:26:28.370Z,16.22
2023-03-12T05:27:31.910Z,16.20
2023-03-12T05:28:34.724Z,16.05
2023-03-12T05:29:39.864Z,16.42
2023-03-12T05:30:42.281Z,17.00
2023-03-12T05:31:46.748Z,16.32
2023-03-12T05:32:49.234Z,16.45
2023-03-12T05:33:53.411Z,17.52
2023-03-12T05:34:59.917Z,17.32
2023-03-12T05:36:02.411Z,16.53
2023-03-12T05:37:08.626Z,17.10
2023-03-12T05:38:11.996Z,16.57
2023-03-12T05:39:25.380Z,16.68
2023-03-12T05:40:27.827Z,16.23
2023-03-12T05:41:31.035Z,16.82
2023-03-12T05:42:33.451Z,16.68
2023-03-12T05:43:36.176Z,16.93
2023-03-12T05:44:39.079Z,16.92
2023-03-12T05:45:41.587Z,16.88
2023-03-12T05:46:52.354Z,17.30
2023-03-12T05:48:03.920Z,17.43
2023-03-12T05:49:06.397Z,17.83
2023-03-12T05:50:10.780Z,18.15
2023-03-12T05:51:13.289Z,19.08
2023-03-12T05:52:15.685Z,20.40
2023-03-12T05:53:18.096Z,19.65
2023-03-12T05:54:20.466Z,18.98
2023-03-12T05:55:22.835Z,18.13
2023-03-12T05:56:25.434Z,18.27
2023-03-12T05:57:27.869Z,19.13
2023-03-12T05:58:30.932Z,18.50
2023-03-12T05:59:33.339Z,16.37
2023-03-12T06:00:38.168Z,16.48
2023-03-12T06:01:41.237Z,16.58
2023-03-12T06:02:43.987Z,16.85
2023-03-12T06:03:46.946Z,16.72
2023-03-12T06:04:50.729Z,16.60
2023-03-12T06:05:58.185Z,16.80
2023-03-12T06:07:00.610Z,16.90
2023-03-12T06:08:04.111Z,17.00
2023-03-12T06:09:06.597Z,16.62
2023-03-12T06:10:09.972Z,16.43
2023-03-12T06:11:13.288Z,17.37
2023-03-12T06:12:15.716Z,16.97
2023-03-12T06:13:18.226Z,17.48
2023-03-12T06:14:26.762Z,16.42
2023-03-12T06:15:29.143Z,16.92
2023-03-12T06:16:31.563Z,16.37
2023-03-12T06:17:33.992Z,15.67
2023-03-12T06:18:45.246Z,16.08
2023-03-12T06:19:54.005Z,17.40
2023-03-12T06:21:11.901Z,17.08
2023-03-12T06:22:16.361Z,16.18
2023-03-12T06:23:21.620Z,16.70
2023-03-12T06:24:24.243Z,17.35
2023-03-12T06:25:33.460Z,18.22
2023-03-12T06:26:35.940Z,18.23
2023-03-12T06:27:38.675Z,18.12
2023-03-12T06:28:41.235Z,18.70
2023-03-12T06:29:43.758Z,18.95
2023-03-12T06:30:46.153Z,19.23
2023-03-12T06:31:48.654Z,18.02
2023-03-12T06:32:51.132Z,18.57
2023-03-12T06:33:56.013Z,18.07
2023-03-12T06:35:02.681Z,18.42
2023-03-12T06:36:06.430Z,17.88
2023-03-12T06:37:11.848Z,17.03
2023-03-12T06:38:14.205Z,17.13
2023-03-12T06:39:18.500Z,17.55
2023-03-12T06:40:20.934Z,18.67
2023-03-12T06:41:23.583Z,21.92
2023-03-12T06:42:26.711Z,21.73
2023-03-12T06:43:31.854Z,20.83
2023-03-12T06:44:43.290Z,21.18
2023-03-12T06:45:45.648Z,18.57
2023-03-12T06:46:48.598Z,17.88
2023-03-12T06:47:51.047Z,18.65
2023-03-12T06:49:10.752Z,18.10
2023-03-12T06:50:13.163Z,17.98
2023-03-12T06:51:17.031Z,17.75
2023-03-12T06:52:19.603Z,17.63
2023-03-12T06:53:22.924Z,18.00
2023-03-12T06:54:25.395Z,18.80
2023-03-12T06:55:30.338Z,20.07
2023-03-12T06:56:32.851Z,19.97
2023-03-12T06:57:35.629Z,19.47
2023-03-12T06:58:38.427Z,18.77
2023-03-12T06:59:40.768Z,17.55
2023-03-12T07:00:43.298Z,16.87
2023-03-12T07:01:45.744Z,16.95
2023-03-12T07:02:48.144Z,18.25
2023-03-12T07:03:50.524Z,19.35
2023-03-12T07:04:52.895Z,17.53
2023-03-12T07:05:56.890Z,18.55
2023-03-12T07:06:59.249Z,18.52
2023-03-12T07:08:01.885Z,17.17
2023-03-12T07:09:06.490Z,17.40
2023-03-12T07:10:11.689Z,18.27
2023-03-12T07:11:14.451Z,18.67
2023-03-12T07:12:16.885Z,17.72
2023-03-12T07:13:19.226Z,17.93
2023-03-12T07:14:21.650Z,16.43
2023-03-12T07:15:24.420Z,17.33
2023-03-12T07:16:26.856Z,16.62
2023-03-12T07:17:29.384Z,17.38
2023-03-12T07:18:31.809Z,17.98
2023-03-12T07:19:34.129Z,18.18
2023-03-12T07:20:42.397Z,18.00
2023-03-12T07:21:44.734Z,17.23
2023-03-12T07:22:47.095Z,16.77
2023-03-12T07:23:50.754Z,16.12
2023-03-12T07:24:53.138Z,16.85
2023-03-12T07:25:55.481Z,17.38
2023-03-12T07:26:57.881Z,18.15
2023-03-12T07:28:00.201Z,18.57
2023-03-12T07:29:03.799Z,17.87
2023-03-12T07:30:06.856Z,17.32
2023-03-12T07:31:09.591Z,16.92
2023-03-12T07:32:12.178Z,19.25
2023-03-12T07:33:14.620Z,18.73
2023-03-12T07:34:17.164Z,19.03
2023-03-12T07:35:19.618Z,18.33
2023-03-12T07:36:24.460Z,18.55
2023-03-12T07:37:26.907Z,17.22
2023-03-12T07:38:29.793Z,17.37
2023-03-12T07:39:32.243Z,16.10
2023-03-12T07:40:35.410Z,15.87
2023-03-12T07:41:39.087Z,16.83
2023-03-12T07:42:41.495Z,16.47
2023-03-12T07:43:44.454Z,16.93
2023-03-12T07:44:47.151Z,19.17
2023-03-12T07:45:50.110Z,21.37
2023-03-12T07:46:53.374Z,16.80
2023-03-12T07:47:55.900Z,16.03
2023-03-12T07:48:58.555Z,15.12
2023-03-12T07:50:02.055Z,14.90
2023-03-12T07:51:05.007Z,15.05
2023-03-12T07:52:11.558Z,15.35
2023-03-12T07:53:14.042Z,14.15
2023-03-12T07:54:16.429Z,15.38
2023-03-12T07:55:18.912Z,15.70
2023-03-12T07:56:21.533Z,15.95
2023-03-12T07:57:24.424Z,15.40
2023-03-12T07:58:27.047Z,15.93
2023-03-12T07:59:29.612Z,15.32
2023-03-12T08:00:32.221Z,14.70
2023-03-12T08:01:34.687Z,14.67
2023-03-12T08:02:37.627Z,15.15
2023-03-12T08:03:40.216Z,15.50
2023-03-12T08:04:42.823Z,15.15
2023-03-12T08:05:45.591Z,15.05
2023-03-12T08:06:48.146Z,14.97
2023-03-12T08:07:53.914Z,14.27
2023-03-12T08:08:56.351Z,14.02
2023-03-12T08:09:59.671Z,15.20
2023-03-12T08:11:04.416Z,15.22
2023-03-12T08:12:07.805Z,14.50
2023-03-12T08:13:10.185Z,13.63
2023-03-12T08:14:12.634Z,14.42
2023-03-12T08:15:15.562Z,13.83
2023-03-12T08:16:18.724Z,13.02
2023-03-12T08:17:21.152Z,14.38
2023-03-12T08:18:24.748Z,13.47
2023-03-12T08:19:27.936Z,13.88
2023-03-12T08:20:30.508Z,13.82
2023-03-12T08:21:32.871Z,14.42
2023-03-12T08:22:35.854Z,14.80
2023-03-12T08:23:38.187Z,14.65
2023-03-12T08:24:40.682Z,15.85
2023-03-12T08:25:45.613Z,16.63
2023-03-12T08:26:48.005Z,14.83
2023-03-12T08:27:50.383Z,15.70
2023-03-12T08:28:52.885Z,13.88
2023-03-12T08:30:16.235Z,13.82
2023-03-12T08:31:18.646Z,13.33
2023-03-12T08:32:41.531Z,14.15
2023-03-12T08:33:44.095Z,13.48
2023-03-12T08:34:46.437Z,13.52
2023-03-12T08:35:50.027Z,13.40
2023-03-12T08:36:52.451Z,13.65
2023-03-12T08:37:57.126Z,13.50
2023-03-12T08:38:59.497Z,13.77
2023-03-12T08:40:02.310Z,15.45
2023-03-12T08:41:05.086Z,14.12
2023-03-12T08:42:07.827Z,17.02
2023-03-12T08:43:10.776Z,17.22
2023-03-12T08:44:13.126Z,14.10
2023-03-12T08:45:16.307Z,12.90
2023-03-12T08:46:18.982Z,11.95
2023-03-12T08:47:21.384Z,13.13
2023-03-12T08:48:23.845Z,14.20
2023-03-12T08:49:26.424Z,12.38
2023-03-12T08:50:29.474Z,12.87
2023-03-12T08:51:31.863Z,13.12
2023-03-12T08:52:34.253Z,14.03
2023-03-12T08:53:37.368Z,14.28
2023-03-12T08:54:39.791Z,13.85
2023-03-12T08:55:42.220Z,13.80
2023-03-12T08:56:46.647Z,13.13
2023-03-12T08:57:49.025Z,13.07
2023-03-12T08:58:51.647Z,13.13
2023-03-12T08:59:53.975Z,13.08
2023-03-12T09:00:56.819Z,13.47
2023-03-12T09:01:59.330Z,14.33
2023-03-12T09:03:01.704Z,15.25
2023-03-12T09:04:05.080Z,14.47
2023-03-12T09:05:07.669Z,13.55
2023-03-12T09:06:14.843Z,11.03
2023-03-12T09:07:18.686Z,10.02
2023-03-12T09:08:21.051Z,10.30
2023-03-12T09:09:23.450Z,11.02
2023-03-12T09:10:30.269Z,10.45
2023-03-12T09:11:34.336Z,10.20
2023-03-12T09:12:36.805Z,10.43
2023-03-12T09:13:58.742Z,11.13
2023-03-12T09:15:04.176Z,10.70
2023-03-12T09:16:08.244Z,10.97
2023-03-12T09:17:10.666Z,11.25
2023-03-12T09:18:13.110Z,11.00
2023-03-12T09:19:15.860Z,11.15
2023-03-12T09:20:18.334Z,9.75
2023-03-12T09:21:21.073Z,10.13
2023-03-12T09:22:23.390Z,11.25
2023-03-12T09:23:26.730Z,11.27
2023-03-12T09:24:29.056Z,12.33
2023-03-12T09:25:31.439Z,12.67
2023-03-12T09:26:33.870Z,12.28
2023-03-12T09:27:39.668Z,12.63
2023-03-12T09:28:42.751Z,12.78
2023-03-12T09:29:58.808Z,11.98
2023-03-12T09:31:02.955Z,12.45
2023-03-12T09:32:06.019Z,12.53
2023-03-12T09:33:08.776Z,13.00
2023-03-12T09:34:11.141Z,11.40
2023-03-12T09:35:15.329Z,11.87
2023-03-12T09:36:17.966Z,11.77
2023-03-12T09:37:23.236Z,11.83
2023-03-12T09:38:26.969Z,11.78
2023-03-12T09:39:29.394Z,12.70
2023-03-12T09:40:36.481Z,12.42
2023-03-12T09:41:41.469Z,11.78
2023-03-12T09:42:48.292Z,12.60
2023-03-12T09:44:02.036Z,12.42
2023-03-12T09:45:06.973Z,12.37
2023-03-12T09:46:34.816Z,12.47
2023-03-12T09:47:47.079Z,12.52
2023-03-12T09:48:50.521Z,12.53
2023-03-12T09:50:07.494Z,12.55
2023-03-12T09:51:20.729Z,12.27
2023-03-12T09:52:28.278Z,11.45
2023-03-12T09:53:53.088Z,12.13
2023-03-12T09:55:15.165Z,12.05
2023-03-12T09:56:20.470Z,11.90
2023-03-12T09:57:26.129Z,11.93
2023-03-12T09:58:36.764Z,12.25
2023-03-12T09:59:39.114Z,12.07
2023-03-12T10:00:41.600Z,12.62
2023-03-12T10:01:59.729Z,12.03
2023-03-12T10:03:11.698Z,12.43
2023-03-12T10:04:48.768Z,12.65
2023-03-12T10:06:06.729Z,12.52
2023-03-12T10:07:21.448Z,12.32
2023-03-12T10:08:34.177Z,11.72
2023-03-12T10:09:39.365Z,12.13
2023-03-12T10:10:51.014Z,11.62
2023-03-12T10:12:04.396Z,12.17
2023-03-12T10:13:25.158Z,11.73
2023-03-12T10:14:42.712Z,12.17
2023-03-12T10:15:55.260Z,11.73
2023-03-12T10:16:57.602Z,11.35
2023-03-12T10:18:24.419Z,12.55
2023-03-12T10:19:55.982Z,12.55
2023-03-12T10:21:24.392Z,11.82
2023-03-12T10:22:47.859Z,11.70
2023-03-12T10:24:08.940Z,11.28
2023-03-12T10:25:42.775Z,12.43
2023-03-12T10:26:50.672Z,12.30
2023-03-12T10:27:54.188Z,15.50
2023-03-12T10:29:17.037Z,17.10
2023-03-12T10:30:26.859Z,13.73
2023-03-12T10:31:33.057Z,13.42
2023-03-12T10:32:46.621Z,12.82
2023-03-12T10:33:55.859Z,12.32
2023-03-12T10:35:14.011Z,11.80
2023-03-12T10:36:20.905Z,12.37
2023-03-12T10:37:25.403Z,12.07
2023-03-12T10:38:30.017Z,11.78
2023-03-12T10:39:32.414Z,11.92
2023-03-12T10:40:36.304Z,11.73
2023-03-12T10:41:38.654Z,12.42
2023-03-12T10:42:41.033Z,12.35
2023-03-12T10:43:43.453Z,11.97
2023-03-12T10:44:50.841Z,11.65
2023-03-12T10:46:22.985Z,11.65
2023-03-12T10:47:31.103Z,12.10
2023-03-12T10:48:33.607Z,11.73
2023-03-12T10:49:37.609Z,13.32
2023-03-12T10:50:40.813Z,12.35
2023-03-12T10:52:13.099Z,12.28
2023-03-12T10:53:26.779Z,11.57
2023-03-12T10:54:37.248Z,11.53
2023-03-12T10:55:39.905Z,11.47
2023-03-12T10:56:51.508Z,11.63
2023-03-12T10:57:54.120Z,11.15
2023-03-12T10:58:58.382Z,11.82
2023-03-12T11:00:12.045Z,11.50
2023-03-12T11:01:24.395Z,12.22
2023-03-12T11:02:34.040Z,12.07
2023-03-12T11:03:36.432Z,12.03
2023-03-12T11:04:38.866Z,11.97
2023-03-12T11:05:53.436Z,11.85
2023-03-12T11:07:06.009Z,11.17
2023-03-12T11:08:29.544Z,11.08
2023-03-12T11:09:31.958Z,11.93
2023-03-12T11:10:46.350Z,11.88
2023-03-12T11:11:50.434Z,11.47
2023-03-12T11:12:59.019Z,12.25
2023-03-12T11:14:15.764Z,11.83
2023-03-12T11:15:29.187Z,12.33
2023-03-12T11:16:32.268Z,11.25
2023-03-12T11:17:34.760Z,12.97
2023-03-12T11:18:38.173Z,12.42
2023-03-12T11:19:40.550Z,11.82
2023-03-12T11:20:42.981Z,11.05
2023-03-12T11:22:16.331Z,11.55
2023-03-12T11:23:28.417Z,10.42
2023-03-12T11:24:31.073Z,10.83
2023-03-12T11:25:33.450Z,11.20
2023-03-12T11:26:51.784Z,10.82
2023-03-12T11:27:57.092Z,10.78
2023-03-12T11:29:31.448Z,10.60
2023-03-12T11:30:37.421Z,11.03
2023-03-12T11:31:57.859Z,10.47
2023-03-12T11:33:02.250Z,10.95
2023-03-12T11:34:08.899Z,10.22
2023-03-12T11:35:13.092Z,10.12
2023-03-12T11:36:27.203Z,10.57
2023-03-12T11:37:54.443Z,9.87
2023-03-12T11:39:26.789Z,10.87
2023-03-12T11:40:53.293Z,11.80
2023-03-12T11:42:17.393Z,11.23
2023-03-12T11:43:57.209Z,10.88
2023-03-12T11:45:29.183Z,10.63
2023-03-12T11:46:57.149Z,11.30
2023-03-12T11:48:36.641Z,11.53
2023-03-12T11:49:58.777Z,10.35
2023-03-12T11:51:19.123Z,10.33
2023-03-12T11:52:47.631Z,10.67
2023-03-12T11:54:20.619Z,9.68
2023-03-12T11:55:52.757Z,9.27
2023-03-12T11:57:07.681Z,10.98
2023-03-12T11:58:46.883Z,11.27
2023-03-12T11:59:58.180Z,11.57
2023-03-12T12:01:18.421Z,10.93
2023-03-12T12:02:32.141Z,10.42
2023-03-12T12:03:49.512Z,10.18
2023-03-12T12:05:03.981Z,9.42
2023-03-12T12:06:23.536Z,9.60
2023-03-12T12:07:57.708Z,10.37
2023-03-12T12:09:12.006Z,9.88
2023-03-12T12:10:32.810Z,9.60
2023-03-12T12:11:54.700Z,9.20
2023-03-12T12:13:39.170Z,9.05
2023-03-12T12:14:49.644Z,8.68
2023-03-12T12:15:57.739Z,8.32
2023-03-12T12:17:39.323Z,7.95
2023-03-12T12:18:56.646Z,7.83
2023-03-12T12:20:17.778Z,7.92
2023-03-12T12:21:43.179Z,8.07
2023-03-12T12:23:13.107Z,8.02
2023-03-12T12:24:18.358Z,7.95
2023-03-12T12:25:48.327Z,8.27
2023-03-12T12:26:50.777Z,7.67
2023-03-12T12:28:21.533Z,8.12
2023-03-12T12:29:43.391Z,8.37
2023-03-12T12:31:03.977Z,7.98
2023-03-12T12:32:13.783Z,7.55
2023-03-12T12:33:33.220Z,8.32
2023-03-12T12:34:41.766Z,8.20
2023-03-12T12:35:45.390Z,8.55
2023-03-12T12:37:21.233Z,8.43
2023-03-12T12:38:50.143Z,8.68
2023-03-12T12:40:05.322Z,8.50
2023-03-12T12:41:18.660Z,7.78
2023-03-12T12:42:26.541Z,7.48
2023-03-12T12:43:42.874Z,8.17
2023-03-12T12:44:51.368Z,8.42
2023-03-12T12:45:57.413Z,7.92
2023-03-12T12:47:05.507Z,7.07
2023-03-12T12:48:25.338Z,9.82
2023-03-12T12:49:50.836Z,10.80
2023-03-12T12:50:54.594Z,13.50
2023-03-12T12:52:08.387Z,10.80
2023-03-12T12:53:16.749Z,9.13
2023-03-12T12:54:35.867Z,8.13
2023-03-12T12:55:55.760Z,7.77
2023-03-12T12:57:05.811Z,7.65
2023-03-12T12:58:24.138Z,8.07
2023-03-12T12:59:32.141Z,8.17
2023-03-12T13:00:56.698Z,7.28
2023-03-12T13:02:01.252Z,7.72
2023-03-12T13:03:04.295Z,7.62
2023-03-12T13:04:12.259Z,7.05
2023-03-12T13:05:26.625Z,6.73
2023-03-12T13:06:30.240Z,7.58
2023-03-12T13:07:34.371Z,6.87
2023-03-12T13:08:39.518Z,7.27
2023-03-12T13:09:48.906Z,6.85
2023-03-12T13:10:57.996Z,7.15
2023-03-12T13:12:13.059Z,7.27
2023-03-12T13:13:21.649Z,6.70
2023-03-12T13:14:36.804Z,6.85
2023-03-12T13:15:43.675Z,6.53
2023-03-12T13:16:47.606Z,6.60
2023-03-12T13:18:19.010Z,7.13
2023-03-12T13:19:25.560Z,6.92
2023-03-12T13:20:35.405Z,7.28
2023-03-12T13:21:55.876Z,6.80
2023-03-12T13:23:31.954Z,6.58
2023-03-12T13:24:44.897Z,6.02
2023-03-12T13:25:56.018Z,6.92
2023-03-12T13:27:38.540Z,7.15
2023-03-12T13:28:56.876Z,7.60
2023-03-12T13:30:33.163Z,7.55
2023-03-12T13:31:37.756Z,7.07
2023-03-12T13:33:06.112Z,7.27
2023-03-12T13:34:17.695Z,6.90
2023-03-12T13:35:28.978Z,6.92
2023-03-12T13:36:33.662Z,6.95
2023-03-12T13:38:06.231Z,7.83
2023-03-12T13:39:08.538Z,7.05
2023-03-12T13:40:30.772Z,7.30
2023-03-12T13:41:49.965Z,6.02
2023-03-12T13:43:08.000Z,6.05
2023-03-12T13:44:29.129Z,6.33
2023-03-12T13:45:32.081Z,5.97
2023-03-12T13:46:38.367Z,6.02
2023-03-12T13:47:43.132Z,6.50
2023-03-12T13:48:47.052Z,6.60
2023-03-12T13:49:56.117Z,6.88
2023-03-12T13:51:23.970Z,6.67
2023-03-12T13:52:31.155Z,6.53
2023-03-12T13:53:40.626Z,7.03
2023-03-12T13:54:48.845Z,7.42
2023-03-12T13:56:06.123Z,7.23
2023-03-12T13:57:24.114Z,6.82
2023-03-12T13:58:27.562Z,6.40
2023-03-12T13:59:30.411Z,6.68
2023-03-12T14:01:02.953Z,7.48
2023-03-12T14:02:18.461Z,7.67
2023-03-12T14:03:28.098Z,8.05
2023-03-12T14:04:38.085Z,7.58
2023-03-12T14:05:55.513Z,6.73
2023-03-12T14:07:38.988Z,6.58
2023-03-12T14:09:06.070Z,6.42
2023-03-12T14:10:22.985Z,7.00
2023-03-12T14:11:49.862Z,6.58
2023-03-12T14:13:13.903Z,6.95
2023-03-12T14:14:25.756Z,6.48
2023-03-12T14:15:40.038Z,6.60
2023-03-12T14:16:49.431Z,6.23
2023-03-12T14:17:57.929Z,6.55
2023-03-12T14:19:00.508Z,6.60
2023-03-12T14:20:17.326Z,7.20
2023-03-12T14:21:22.015Z,6.77
2023-03-12T14:22:25.245Z,6.62
2023-03-12T14:23:35.918Z,6.23
2023-03-12T14:24:48.638Z,6.45
2023-03-12T14:25:57.147Z,6.25
2023-03-12T14:27:01.876Z,6.28
2023-03-12T14:28:10.966Z,5.93
2023-03-12T14:29:29.951Z,6.10
2023-03-12T14:30:52.606Z,5.73
2023-03-12T14:31:58.023Z,5.85
2023-03-12T14:33:03.099Z,5.65
2023-03-12T14:34:21.112Z,5.50
2023-03-12T14:35:28.390Z,5.47
2023-03-12T14:36:43.304Z,6.35
2023-03-12T14:38:05.109Z,6.35